Time;durP1;ratioP1;P1;durP2;ratioP2;P2;SDS_P1;SDS_P2;PMS_P1;PMS_P2;Temp;Humidity;BMP_temperature;BMP_pressure;BME280_temperature;BME280_humidity;BME280_pressure;Samples;Min_cycle;Max_cycle;Signal;HPM_P1;HPM_P2
2023/07/14 00:01:52;;;;;;;3.58;2.85;;;;;;;-141.84;61.64;21102.56;4889334;29;20459;-63
2023/07/14 00:04:28;;;;;;;3.20;2.88;;;;;;;-141.84;62.10;21074.09;4896563;29;20234;-63
2023/07/14 00:06:56;;;;;;;3.30;2.72;;;;;;;-141.84;62.53;21088.34;4888806;29;20294;-63
2023/07/14 00:09:28;;;;;;;5.45;3.20;;;;;;;-141.84;62.98;21043.59;4902340;29;20655;-62
2023/07/14 00:11:57;;;;;;;4.53;2.78;;;;;;;-141.84;63.14;21037.50;4908614;29;20273;-64
2023/07/14 00:14:26;;;;;;;3.30;3.00;;;;;;;-141.84;63.37;21057.84;4896331;29;20227;-65
2023/07/14 00:16:56;;;;;;;5.68;3.20;;;;;;;-141.84;63.45;21043.59;4888178;29;20242;-64
2023/07/14 00:19:26;;;;;;;4.70;3.28;;;;;;;-141.84;63.71;21045.63;4889507;29;20420;-64
2023/07/14 00:21:55;;;;;;;7.80;3.58;;;;;;;-141.84;63.83;21004.97;4907396;29;20229;-62
2023/07/14 00:24:24;;;;;;;3.90;3.33;;;;;;;-141.84;64.17;20988.72;4906203;29;20293;-64
2023/07/14 00:26:55;;;;;;;4.93;3.30;;;;;;;-141.84;63.93;21053.78;4908008;29;20317;-62
2023/07/14 00:29:37;;;;;;;4.05;3.45;;;;;;;-141.84;63.87;21070.03;4908050;29;20282;-63
2023/07/14 00:32:14;;;;;;;3.33;3.00;;;;;;;-141.84;63.79;21023.28;4906477;28;20241;-64
2023/07/14 00:34:43;;;;;;;3.72;3.17;;;;;;;-141.84;64.10;20990.75;4896989;28;20697;-63
2023/07/14 00:37:12;;;;;;;3.97;3.17;;;;;;;-141.84;63.50;21068.00;4888969;29;20265;-63
2023/07/14 00:39:41;;;;;;;3.28;2.97;;;;;;;-141.84;62.89;21049.72;4888807;29;20707;-64
2023/07/14 00:42:13;;;;;;;4.43;3.08;;;;;;;-141.84;63.71;21013.13;4888129;29;20301;-64
2023/07/14 00:44:43;;;;;;;4.78;3.03;;;;;;;-141.84;64.26;21023.28;4881622;29;20480;-63
2023/07/14 00:47:28;;;;;;;3.20;2.90;;;;;;;-141.84;63.83;20992.78;4888547;29;20274;-64
2023/07/14 00:49:58;;;;;;;3.42;3.10;;;;;;;-141.84;63.55;21043.59;4888668;29;20235;-62
2023/07/14 00:52:31;;;;;;;4.32;3.35;;;;;;;-141.84;63.71;21011.09;4881141;29;20265;-67
2023/07/14 00:55:00;;;;;;;4.93;3.20;;;;;;;-141.84;64.33;20952.13;4888696;29;20257;-63
2023/07/14 00:57:29;;;;;;;3.35;3.05;;;;;;;-141.84;64.31;20996.84;4887819;29;20230;-63
2023/07/14 01:00:15;;;;;;;3.20;2.90;;;;;;;-141.84;63.31;20998.88;4888669;29;20622;-63
2023/07/14 01:02:45;;;;;;;2.97;2.67;;;;;;;-141.84;63.82;20996.84;4899240;28;20464;-63
2023/07/14 01:05:14;;;;;;;3.17;2.88;;;;;;;-141.84;63.59;21021.25;4886159;29;20613;-63
2023/07/14 01:07:46;;;;;;;3.03;2.72;;;;;;;-141.84;63.42;20968.38;4887906;29;20344;-64
2023/07/14 01:10:18;;;;;;;3.55;3.08;;;;;;;-141.84;63.14;21017.19;4906859;29;20825;-63
2023/07/14 01:12:54;;;;;;;4.45;3.42;;;;;;;-141.84;62.63;21039.53;4899441;29;20329;-64
2023/07/14 01:15:23;;;;;;;3.47;2.85;;;;;;;-141.84;62.84;21025.31;4894619;29;20321;-63
2023/07/14 01:17:53;;;;;;;5.57;3.03;;;;;;;-141.84;62.86;21025.31;4888383;29;20242;-62
2023/07/14 01:20:22;;;;;;;3.45;3.15;;;;;;;-141.84;63.07;20944.00;4896389;29;20289;-64
2023/07/14 01:23:00;;;;;;;4.80;3.20;;;;;;;-141.84;63.75;20956.19;4903910;29;20737;-63
2023/07/14 01:25:41;;;;;;;7.10;3.63;;;;;;;-141.84;63.45;20960.25;4906962;29;20268;-63
2023/07/14 01:28:14;;;;;;;5.20;3.78;;;;;;;-141.84;62.87;21041.56;4907120;29;20317;-64
2023/07/14 01:30:43;;;;;;;4.15;3.35;;;;;;;-141.84;63.29;20974.50;4899364;29;20328;-63
2023/07/14 01:33:16;;;;;;;4.47;4.00;;;;;;;-141.84;63.41;20972.47;4906805;29;20222;-63
2023/07/14 01:35:48;;;;;;;5.03;3.60;;;;;;;-141.84;63.24;21019.22;4895609;29;20592;-63
2023/07/14 01:38:17;;;;;;;4.13;3.70;;;;;;;-141.84;63.23;21009.03;4887795;29;20272;-64
2023/07/14 01:40:46;;;;;;;6.00;3.50;;;;;;;-141.84;62.68;21063.94;4880134;29;20250;-64
2023/07/14 01:43:16;;;;;;;4.57;3.35;;;;;;;-141.84;63.57;21000.91;4887360;29;20273;-63
2023/07/14 01:45:54;;;;;;;5.22;2.95;;;;;;;-141.84;64.05;21015.16;4887997;29;20672;-63
2023/07/14 01:48:28;;;;;;;5.35;3.15;;;;;;;-141.84;63.96;21055.81;4888011;29;20321;-63
2023/07/14 01:51:00;;;;;;;3.70;3.20;;;;;;;-141.84;64.95;21000.91;4888331;29;20306;-63
2023/07/14 01:53:33;;;;;;;4.70;2.85;;;;;;;-141.84;64.74;21037.50;4906777;29;20292;-63
2023/07/14 01:56:05;;;;;;;4.40;3.17;;;;;;;-141.84;64.46;21027.34;4906616;29;20336;-65
2023/07/14 01:58:39;;;;;;;5.45;3.42;;;;;;;-141.84;65.32;20986.69;4899801;29;20664;-65
2023/07/14 02:01:10;;;;;;;4.30;3.33;;;;;;;-141.84;65.68;20974.50;4906624;28;20229;-65
2023/07/14 02:03:45;;;;;;;3.88;2.95;;;;;;;-141.84;66.05;20974.50;4906953;28;20230;-64
2023/07/14 02:06:14;;;;;;;3.65;3.35;;;;;;;-141.84;65.67;20994.81;4902753;28;20213;-64
2023/07/14 02:08:44;;;;;;;4.57;3.25;;;;;;;-141.84;66.35;20992.78;4907510;28;20221;-63
2023/07/14 02:11:17;;;;;;;3.60;2.80;;;;;;;-141.84;66.25;20978.56;4925552;28;20241;-65
2023/07/14 02:13:47;;;;;;;4.50;3.33;;;;;;;-141.84;66.70;20980.59;4925130;28;20276;-63
2023/07/14 02:16:17;;;;;;;3.33;2.97;;;;;;;-141.84;67.48;20925.69;4905941;29;20618;-64
2023/07/14 02:18:47;;;;;;;4.32;3.30;;;;;;;-141.84;67.82;20929.75;4898943;29;20252;-63
2023/07/14 02:21:21;;;;;;;4.82;3.08;;;;;;;-141.84;67.21;20968.38;4921445;28;20595;-64
2023/07/14 02:23:51;;;;;;;4.95;3.38;;;;;;;-141.84;67.68;20952.13;4925131;28;20321;-64
2023/07/14 02:26:27;;;;;;;4.50;3.22;;;;;;;-141.84;67.94;20909.44;4925304;28;20239;-63
2023/07/14 02:28:58;;;;;;;5.75;3.42;;;;;;;-141.84;67.96;20956.19;4925129;28;20666;-63
2023/07/14 02:31:31;;;;;;;4.70;3.20;;;;;;;-141.84;67.45;20944.00;4924634;28;20332;-64
2023/07/14 02:34:00;;;;;;;6.88;3.50;;;;;;;-141.84;67.58;20925.69;4924896;28;20655;-63
2023/07/14 02:36:42;;;;;;;5.00;3.40;;;;;;;-141.84;67.57;20927.72;4899308;28;20293;-64
2023/07/14 02:39:11;;;;;;;5.72;3.60;;;;;;;-141.84;68.45;20883.00;4905876;28;20599;-63
2023/07/14 02:41:43;;;;;;;5.28;3.80;;;;;;;-141.84;68.69;20842.34;4906774;29;20686;-63
2023/07/14 02:44:16;;;;;;;5.88;3.63;;;;;;;-141.84;67.90;20944.00;4905934;29;20789;-64
2023/07/14 02:46:48;;;;;;;3.95;3.50;;;;;;;-141.84;67.00;20950.09;4898069;29;20288;-63
2023/07/14 02:49:17;;;;;;;5.07;3.95;;;;;;;-141.84;66.79;20929.75;4905784;29;20295;-64
2023/07/14 02:51:45;;;;;;;5.20;3.53;;;;;;;-141.84;67.35;20895.19;4906386;29;20234;-64
2023/07/14 02:54:14;;;;;;;4.07;3.67;;;;;;;-141.84;67.33;20895.19;4905703;29;20694;-64
2023/07/14 02:56:43;;;;;;;5.13;3.90;;;;;;;-141.84;67.24;20915.53;4901914;29;20261;-64
2023/07/14 02:59:14;;;;;;;4.38;3.28;;;;;;;-141.84;67.08;20889.09;4909445;29;20245;-64
2023/07/14 03:01:42;;;;;;;4.07;3.60;;;;;;;-141.84;66.53;20927.72;4909712;29;20273;-63
2023/07/14 03:04:11;;;;;;;5.53;3.70;;;;;;;-141.84;66.93;20878.94;4909508;29;20234;-63
2023/07/14 03:06:40;;;;;;;5.82;4.15;;;;;;;-141.84;66.50;20913.50;4901821;29;20226;-64
2023/07/14 03:09:08;;;;;;;4.90;4.03;;;;;;;-141.84;66.17;20931.78;4920661;28;20244;-63
2023/07/14 03:11:37;;;;;;;5.90;4.13;;;;;;;-141.84;66.13;20885.03;4928761;28;20220;-64
2023/07/14 03:14:06;;;;;;;5.72;4.32;;;;;;;-141.84;65.32;20962.28;4926120;28;20613;-63
2023/07/14 03:16:36;;;;;;;4.57;4.03;;;;;;;-141.84;66.44;20909.44;4901780;29;20246;-63
2023/07/14 03:19:05;;;;;;;5.85;3.85;;;;;;;-141.84;66.75;20905.38;4909252;29;20261;-64
2023/07/14 03:21:34;;;;;;;5.07;3.70;;;;;;;-141.84;67.28;20878.94;4926631;28;20664;-63
2023/07/14 03:24:02;;;;;;;5.97;3.95;;;;;;;-141.84;67.45;20858.59;4928065;28;20209;-64
2023/07/14 03:26:31;;;;;;;5.95;4.38;;;;;;;-141.84;67.57;20878.94;4920899;28;20210;-63
2023/07/14 03:29:00;;;;;;;5.13;4.53;;;;;;;-141.84;67.36;20876.91;4927660;28;20804;-62
2023/07/14 03:31:28;;;;;;;4.18;3.78;;;;;;;-141.84;67.69;20856.56;4927868;28;20315;-62
2023/07/14 03:33:58;;;;;;;4.72;3.90;;;;;;;-141.84;67.33;20844.38;4927555;28;20233;-64
2023/07/14 03:36:27;;;;;;;5.88;3.88;;;;;;;-141.84;67.68;20848.44;4904475;28;20300;-63
2023/07/14 03:39:21;;;;;;;6.45;3.97;;;;;;;-141.84;67.50;20864.72;4909538;29;20305;-63
2023/07/14 03:41:50;;;;;;;5.93;4.00;;;;;;;-141.84;67.87;20883.00;4908809;29;20289;-64
2023/07/14 03:44:18;;;;;;;4.53;4.03;;;;;;;-141.84;67.49;20854.53;4908152;29;20241;-62
2023/07/14 03:46:47;;;;;;;5.53;3.72;;;;;;;-141.84;67.84;20911.47;4900851;29;20318;-64
2023/07/14 03:49:17;;;;;;;5.70;4.10;;;;;;;-141.84;67.08;20856.56;4908405;29;20325;-63
2023/07/14 03:51:46;;;;;;;3.80;3.50;;;;;;;-141.84;67.38;20878.94;4908276;29;20236;-64
2023/07/14 03:54:14;;;;;;;4.93;3.70;;;;;;;-141.84;67.09;20921.63;4908466;29;20297;-63
2023/07/14 03:56:44;;;;;;;5.53;3.83;;;;;;;-141.84;67.52;20899.28;4883738;29;20305;-63
2023/07/14 03:59:13;;;;;;;4.78;3.60;;;;;;;-141.84;66.93;20956.19;4889330;29;20495;-63
2023/07/14 04:01:42;;;;;;;5.38;3.47;;;;;;;-141.84;66.61;20939.94;4889327;29;20604;-64
2023/07/14 04:04:10;;;;;;;4.22;3.83;;;;;;;-141.84;67.08;20946.03;4889414;29;20294;-64
2023/07/14 04:06:40;;;;;;;6.75;3.92;;;;;;;-141.84;66.86;20937.91;4880376;29;20239;-63
2023/07/14 04:09:09;;;;;;;6.00;4.00;;;;;;;-141.84;66.19;20980.59;4900290;29;20325;-63
2023/07/14 04:11:38;;;;;;;4.45;4.05;;;;;;;-141.84;66.10;20960.25;4908278;29;20306;-62
2023/07/14 04:14:07;;;;;;;4.35;3.70;;;;;;;-141.84;66.10;21000.91;4905447;29;20248;-63
2023/07/14 04:16:36;;;;;;;7.20;4.20;;;;;;;-141.84;65.44;21000.91;4881345;29;20768;-63
2023/07/14 04:19:05;;;;;;;3.90;3.60;;;;;;;-141.84;65.21;20992.78;4889020;29;20266;-63
2023/07/14 04:21:34;;;;;;;4.90;3.90;;;;;;;-141.84;65.02;21000.91;4906375;29;20777;-63
2023/07/14 04:24:04;;;;;;;4.50;3.90;;;;;;;-141.84;64.76;21007.00;4907569;29;20289;-63
2023/07/14 04:26:33;;;;;;;4.32;3.67;;;;;;;-141.84;64.57;21035.47;4900523;29;20230;-65
2023/07/14 04:29:01;;;;;;;7.65;3.80;;;;;;;-141.84;64.46;21088.34;4907616;29;20269;-64
2023/07/14 04:31:30;;;;;;;6.40;4.28;;;;;;;-141.84;63.00;21126.97;4902499;29;20262;-62
2023/07/14 04:33:58;;;;;;;5.93;4.03;;;;;;;-141.84;62.51;21137.13;4888697;29;20750;-63
2023/07/14 04:36:27;;;;;;;4.22;3.83;;;;;;;-141.84;61.69;21118.84;4882375;29;20234;-66
2023/07/14 04:39:05;;;;;;;4.22;3.53;;;;;;;-141.84;61.49;21157.47;4889056;29;20305;-63
2023/07/14 04:41:35;;;;;;;4.35;3.45;;;;;;;-141.84;61.31;21196.09;4907346;29;20834;-62
2023/07/14 04:44:09;;;;;;;5.65;3.50;;;;;;;-141.84;61.64;21143.22;4907935;29;20261;-64
2023/07/14 04:46:38;;;;;;;5.03;3.60;;;;;;;-141.84;61.62;21153.41;4900037;29;20266;-63
2023/07/14 04:49:07;;;;;;;4.50;4.03;;;;;;;-141.84;60.16;21246.91;4907640;29;20269;-64
2023/07/14 04:51:36;;;;;;;5.57;4.10;;;;;;;-141.84;59.54;21248.94;4907508;29;20237;-63
2023/07/14 04:54:07;;;;;;;4.22;3.55;;;;;;;-141.84;59.86;21259.13;4907098;29;20698;-63
2023/07/14 04:56:37;;;;;;;4.18;3.70;;;;;;;-141.84;59.74;21289.59;4883520;29;20258;-64
2023/07/14 04:59:07;;;;;;;5.45;3.47;;;;;;;-141.84;58.30;21460.41;4888385;29;20790;-64
2023/07/14 05:01:36;;;;;;;4.57;3.20;;;;;;;-141.84;54.07;21783.69;4887666;29;20374;-64
2023/07/14 05:04:05;;;;;;;3.20;2.70;;;;;;;-141.84;50.14;22125.31;4888476;29;20246;-64
2023/07/14 05:06:33;;;;;;;4.97;3.45;;;;;;;-141.84;45.06;22515.78;4880898;29;20286;-64
2023/07/14 05:09:02;;;;;;;6.15;3.50;;;;;;;-141.84;44.90;22635.78;4898153;29;20238;-63
2023/07/14 05:11:32;;;;;;;5.78;3.35;;;;;;;-141.84;42.17;22906.28;4907597;29;20206;-65
2023/07/14 05:14:00;;;;;;;5.70;3.42;;;;;;;-141.84;41.36;22999.84;4905450;29;20240;-65
2023/07/14 05:16:29;;;;;;;4.78;3.92;;;;;;;-141.84;41.70;22955.09;4880687;29;20330;-63
2023/07/14 05:18:57;;;;;;;5.53;3.25;;;;;;;-141.84;41.78;22979.50;4887749;29;20246;-64
2023/07/14 05:21:26;;;;;;;6.10;3.13;;;;;;;-141.84;40.60;23241.91;4904078;29;20309;-64
2023/07/14 05:23:54;;;;;;;4.13;3.15;;;;;;;-141.84;38.16;23591.78;4907612;29;20218;-65
2023/07/14 05:26:23;;;;;;;3.92;2.55;;;;;;;-141.84;37.61;23722.00;4906497;29;20234;-64
2023/07/14 05:28:53;;;;;;;5.38;3.28;;;;;;;-141.84;39.90;23087.31;4893525;29;20699;-64
2023/07/14 05:31:22;;;;;;;5.70;2.63;;;;;;;-141.84;42.50;22676.44;4887400;29;20822;-64
2023/07/14 05:33:51;;;;;;;4.50;2.88;;;;;;;-141.84;43.78;22536.13;4887677;29;20238;-64
2023/07/14 05:36:19;;;;;;;5.72;3.05;;;;;;;-141.84;42.50;22733.41;4887652;29;22363;-64
2023/07/14 05:38:48;;;;;;;4.40;3.30;;;;;;;-141.84;42.27;22794.41;4880405;29;20289;-65
2023/07/14 05:41:16;;;;;;;4.22;3.15;;;;;;;-141.84;42.70;22603.22;4887495;29;20270;-66
2023/07/14 05:43:45;;;;;;;4.40;3.00;;;;;;;-141.84;43.34;22469.00;4887730;29;20238;-64
2023/07/14 05:46:14;;;;;;;5.38;3.30;;;;;;;-141.84;44.92;22296.13;4887638;29;20257;-64
2023/07/14 05:48:43;;;;;;;3.13;2.83;;;;;;;-141.84;45.71;22176.16;4880110;29;20246;-65
2023/07/14 05:51:13;;;;;;;4.50;3.03;;;;;;;-141.84;46.27;22088.72;4887717;29;20302;-65
2023/07/14 05:53:41;;;;;;;3.60;3.10;;;;;;;-141.84;46.21;22033.81;4888027;29;20215;-64
2023/07/14 05:56:10;;;;;;;4.72;2.97;;;;;;;-141.84;47.19;21999.25;4887442;29;20671;-64
2023/07/14 05:58:39;;;;;;;3.92;2.92;;;;;;;-141.84;47.72;21948.41;4880536;29;20238;-64
2023/07/14 06:01:08;;;;;;;4.80;2.90;;;;;;;-141.84;47.87;21948.41;4887567;29;20238;-65
2023/07/14 06:03:38;;;;;;;3.28;2.72;;;;;;;-141.84;47.51;21993.13;4887549;29;20239;-64
2023/07/14 06:06:07;;;;;;;3.55;3.08;;;;;;;-141.84;47.41;21989.06;4887371;29;20668;-64
2023/07/14 06:08:35;;;;;;;6.22;2.78;;;;;;;-141.84;46.93;22050.06;4887912;29;20289;-64
2023/07/14 06:11:05;;;;;;;3.85;2.80;;;;;;;-141.84;46.43;22064.31;4906738;29;20328;-64
2023/07/14 06:13:33;;;;;;;6.32;2.80;;;;;;;-141.84;46.69;22060.25;4906946;29;20741;-64
2023/07/14 06:16:02;;;;;;;5.05;3.08;;;;;;;-141.84;46.28;22054.13;4888673;29;20254;-64
2023/07/14 06:18:31;;;;;;;4.15;2.88;;;;;;;-141.84;46.12;22074.47;4879806;29;20234;-63
2023/07/14 06:21:01;;;;;;;4.28;2.70;;;;;;;-141.84;46.08;22100.91;4900416;29;20241;-64
2023/07/14 06:23:30;;;;;;;3.25;2.58;;;;;;;-141.84;45.98;22052.09;4906269;29;20258;-64
2023/07/14 06:25:58;;;;;;;5.55;2.60;;;;;;;-141.84;46.08;22078.53;4887365;29;20713;-62
2023/07/14 06:28:28;;;;;;;2.97;2.67;;;;;;;-141.84;46.57;22096.84;4879616;29;20238;-64
2023/07/14 06:30:57;;;;;;;3.95;2.42;;;;;;;-141.84;46.23;22098.88;4888952;29;20325;-63
2023/07/14 06:33:26;;;;;;;4.50;2.97;;;;;;;-141.84;45.98;22125.31;4890660;29;20267;-63
2023/07/14 06:35:57;;;;;;;3.53;2.65;;;;;;;-141.84;46.36;22159.88;4891131;29;20591;-62
2023/07/14 06:38:28;;;;;;;4.25;2.47;;;;;;;-141.84;44.97;22170.06;4902577;29;20272;-61
2023/07/14 06:40:57;;;;;;;3.35;2.55;;;;;;;-141.84;44.38;22153.78;4902491;29;20664;-63
2023/07/14 06:43:25;;;;;;;5.40;2.50;;;;;;;-141.84;45.12;22163.94;4890912;29;20250;-63
2023/07/14 06:45:54;;;;;;;4.30;2.60;;;;;;;-141.84;45.14;22141.59;4890285;29;20591;-63
2023/07/14 06:48:23;;;;;;;2.60;2.40;;;;;;;-141.84;44.62;22214.78;4890053;29;20227;-64
2023/07/14 06:50:51;;;;;;;4.10;2.40;;;;;;;-141.84;44.64;22200.56;4889731;29;20326;-62
2023/07/14 06:53:21;;;;;;;3.63;2.28;;;;;;;-141.84;44.29;22222.94;4890387;29;20272;-63
2023/07/14 06:55:51;;;;;;;2.92;2.40;;;;;;;-141.84;44.35;22202.59;4888919;29;20234;-63
2023/07/14 06:58:20;;;;;;;3.13;2.50;;;;;;;-141.84;44.43;22182.25;4889801;29;20909;-63
2023/07/14 07:00:49;;;;;;;4.60;2.80;;;;;;;-141.84;44.02;22261.56;4884062;29;20718;-62
2023/07/14 07:03:17;;;;;;;3.15;2.33;;;;;;;-141.84;43.78;22239.19;4890082;29;20568;-63
2023/07/14 07:05:46;;;;;;;3.70;2.60;;;;;;;-141.84;43.92;22239.19;4890315;29;20214;-63
2023/07/14 07:08:16;;;;;;;3.10;2.42;;;;;;;-141.84;44.67;22210.72;4894506;29;20233;-63
2023/07/14 07:10:45;;;;;;;2.35;2.15;;;;;;;-141.84;44.33;22275.81;4902111;29;25461;-63
2023/07/14 07:13:16;;;;;;;3.97;2.03;;;;;;;-141.84;43.95;22263.59;4909107;29;20301;-63
2023/07/14 07:15:45;;;;;;;3.67;2.30;;;;;;;-141.84;44.30;22257.50;4894055;29;20685;-64
2023/07/14 07:18:19;;;;;;;2.55;2.35;;;;;;;-141.84;44.20;22292.06;4890046;29;20249;-64
2023/07/14 07:20:47;;;;;;;2.83;2.40;;;;;;;-141.84;43.47;22328.69;4885463;29;20223;-62
2023/07/14 07:23:17;;;;;;;4.03;2.67;;;;;;;-141.84;44.02;22320.53;4890005;29;20269;-63
2023/07/14 07:25:48;;;;;;;3.63;2.33;;;;;;;-141.84;43.64;22332.75;4890411;29;20249;-63
2023/07/14 07:28:18;;;;;;;2.53;2.10;;;;;;;-141.84;43.50;22334.78;4890050;29;20269;-62
2023/07/14 07:30:48;;;;;;;4.28;2.33;;;;;;;-141.84;43.40;22342.91;4881774;29;20250;-64
2023/07/14 07:33:17;;;;;;;3.25;2.17;;;;;;;-141.84;43.04;22381.56;4889225;29;20238;-64
2023/07/14 07:35:46;;;;;;;4.82;2.20;;;;;;;-141.84;42.41;22391.72;4890153;29;20265;-63
2023/07/14 07:38:14;;;;;;;2.75;2.03;;;;;;;-141.84;41.99;22401.88;4890110;29;20267;-63
2023/07/14 07:40:47;;;;;;;5.82;2.30;;;;;;;-141.84;42.03;22363.25;4882441;29;20223;-63
2023/07/14 07:43:18;;;;;;;3.95;2.38;;;;;;;-141.84;42.54;22379.53;4889358;29;20241;-66
2023/07/14 07:45:50;;;;;;;3.65;1.98;;;;;;;-141.84;42.72;22330.72;4889306;29;20241;-63
2023/07/14 07:48:18;;;;;;;3.05;2.08;;;;;;;-141.84;42.50;22363.25;4885871;29;20346;-64
2023/07/14 07:50:47;;;;;;;2.05;1.85;;;;;;;-141.84;42.50;22330.72;4900858;28;20291;-64
2023/07/14 07:53:16;;;;;;;3.35;1.73;;;;;;;-141.84;42.51;22344.94;4907269;29;20269;-66
2023/07/14 07:55:53;;;;;;;3.85;1.95;;;;;;;-141.84;42.33;22383.59;4898840;29;20234;-64
2023/07/14 07:58:25;;;;;;;2.83;1.83;;;;;;;-141.84;42.15;22363.25;4900840;29;20237;-66
2023/07/14 08:00:54;;;;;;;3.50;2.03;;;;;;;-141.84;42.20;22389.69;4908459;28;20266;-65
2023/07/14 08:03:23;;;;;;;8.55;2.70;;;;;;;-141.84;42.35;22387.66;4907844;28;20233;-65
2023/07/14 08:05:54;;;;;;;2.72;2.50;;;;;;;-141.84;42.69;22367.31;4907786;29;20214;-64
2023/07/14 08:08:23;;;;;;;3.08;2.42;;;;;;;-141.84;42.64;22430.38;4906457;28;20237;-65
2023/07/14 08:10:52;;;;;;;3.53;2.22;;;;;;;-141.84;42.46;22432.41;4904686;29;20800;-65
2023/07/14 08:13:24;;;;;;;3.05;2.30;;;;;;;-141.84;42.86;22416.13;4907763;29;20778;-65
2023/07/14 08:15:54;;;;;;;7.20;2.53;;;;;;;-141.84;42.92;22444.59;4891420;29;20246;-65
2023/07/14 08:18:23;;;;;;;3.15;2.38;;;;;;;-141.84;42.90;22403.94;4888233;29;20606;-64
2023/07/14 08:20:52;;;;;;;4.80;2.50;;;;;;;-141.84;43.07;22446.63;4886687;29;20219;-64
2023/07/14 08:23:22;;;;;;;7.00;2.30;;;;;;;-141.84;43.26;22440.53;4914785;29;20655;-64
2023/07/14 08:25:54;;;;;;;5.30;2.35;;;;;;;-141.84;41.37;22481.22;4907251;28;20239;-64
2023/07/14 08:28:24;;;;;;;2.70;2.17;;;;;;;-141.84;41.92;22426.28;4907367;29;20794;-63
2023/07/14 08:30:59;;;;;;;5.30;2.50;;;;;;;-141.84;41.60;22420.19;4905117;29;20234;-65
2023/07/14 08:33:28;;;;;;;4.20;1.95;;;;;;;-141.84;41.20;22432.41;4907498;29;20246;-63
2023/07/14 08:36:00;;;;;;;5.30;2.28;;;;;;;-141.84;41.53;22497.47;4895789;29;20663;-62
2023/07/14 08:38:37;;;;;;;4.50;2.30;;;;;;;-141.84;42.38;22519.84;4900050;29;20233;-63
2023/07/14 08:41:12;;;;;;;3.40;2.40;;;;;;;-141.84;41.58;22511.72;4907176;29;20230;-62
2023/07/14 08:43:53;;;;;;;2.97;1.92;;;;;;;-141.84;40.58;22521.88;4907013;29;20669;-65
2023/07/14 08:46:33;;;;;;;3.22;1.95;;;;;;;-141.84;40.25;22554.41;4906726;29;20285;-64
2023/07/14 08:49:11;;;;;;;3.60;2.10;;;;;;;-141.84;41.32;22477.13;4906817;29;20788;-61
2023/07/14 08:51:43;;;;;;;3.30;2.00;;;;;;;-141.84;40.28;22534.09;4907098;29;20262;-64
2023/07/14 08:54:17;;;;;;;2.75;2.30;;;;;;;-141.84;40.82;22499.50;4906592;29;20218;-64
2023/07/14 08:56:46;;;;;;;3.92;2.25;;;;;;;-141.84;40.48;22544.25;4899539;29;20222;-64
2023/07/14 08:59:21;;;;;;;2.58;2.25;;;;;;;-141.84;40.04;22615.44;4907418;29;20229;-63
2023/07/14 09:01:53;;;;;;;1.83;1.73;;;;;;;-141.84;39.90;22674.41;4906406;29;20251;-64
2023/07/14 09:04:25;;;;;;;3.03;2.30;;;;;;;-141.84;39.69;22765.94;4902890;29;20219;-66
2023/07/14 09:06:54;;;;;;;3.75;2.47;;;;;;;-141.84;38.60;22847.28;4869297;29;20716;-66
2023/07/14 09:09:31;;;;;;;3.53;1.80;;;;;;;-141.84;38.27;22859.50;4895169;29;20262;-65
2023/07/14 09:12:09;;;;;;;3.10;1.80;;;;;;;-141.84;38.26;22871.72;4906913;29;20281;-66
2023/07/14 09:14:51;;;;;;;2.28;1.90;;;;;;;-141.84;37.51;22928.66;4892795;28;20562;-63
2023/07/14 09:17:30;;;;;;;2.50;1.77;;;;;;;-141.84;38.08;22837.13;4869081;29;20277;-67
2023/07/14 09:20:38;;;;;;;2.95;2.10;;;;;;;-141.84;38.34;22802.56;4873997;29;20291;-67
2023/07/14 09:23:26;;;;;;;3.75;2.20;;;;;;;-141.84;38.49;22855.44;4887585;29;20345;-67
2023/07/14 09:26:04;;;;;;;4.20;2.33;;;;;;;-141.84;38.66;22835.09;4887680;29;20329;-62
2023/07/14 09:28:36;;;;;;;4.68;2.13;;;;;;;-141.84;38.84;22881.88;4861780;29;20455;-64
2023/07/14 09:31:21;;;;;;;4.47;2.15;;;;;;;-141.84;37.79;23048.66;4869121;29;20343;-63
2023/07/14 09:33:55;;;;;;;4.60;2.25;;;;;;;-141.84;37.19;23103.59;4869388;29;20247;-63
2023/07/14 09:36:24;;;;;;;2.65;2.05;;;;;;;-141.84;37.73;23056.81;4883720;29;20265;-63
2023/07/14 09:38:57;;;;;;;2.17;1.90;;;;;;;-141.84;38.08;23010.00;4887742;29;20648;-63
2023/07/14 09:41:28;;;;;;;2.50;2.22;;;;;;;-141.84;37.48;23018.16;4906670;29;20234;-62
2023/07/14 09:43:58;;;;;;;4.22;2.75;;;;;;;-141.84;37.94;22879.84;4891113;29;20260;-64
2023/07/14 09:46:37;;;;;;;3.78;2.15;;;;;;;-141.84;38.32;22930.69;4880290;29;20266;-63
2023/07/14 09:49:14;;;;;;;3.40;2.40;;;;;;;-141.84;37.69;22843.22;4887111;29;20605;-63
2023/07/14 09:52:02;;;;;;;4.28;2.20;;;;;;;-141.84;38.20;22902.22;4887491;29;20257;-62
2023/07/14 09:54:30;;;;;;;3.42;2.60;;;;;;;-141.84;38.00;23005.94;4879617;29;20286;-64
2023/07/14 09:57:03;;;;;;;4.50;2.25;;;;;;;-141.84;37.83;22906.28;4887246;29;20206;-64
2023/07/14 09:59:32;;;;;;;2.75;2.33;;;;;;;-141.84;37.71;22953.06;4905886;28;20241;-64
2023/07/14 10:02:03;;;;;;;3.70;2.30;;;;;;;-141.84;37.76;22918.50;4903812;29;20264;-64
2023/07/14 10:04:36;;;;;;;4.55;2.20;;;;;;;-141.84;37.91;22879.84;4875670;29;20299;-63
2023/07/14 10:07:34;;;;;;;2.58;2.00;;;;;;;-141.84;37.83;22885.94;4873099;29;20657;-63
2023/07/14 10:10:08;;;;;;;2.47;1.88;;;;;;;-141.84;38.52;22936.78;4872732;29;20313;-64
2023/07/14 10:12:40;;;;;;;3.58;2.20;;;;;;;-141.84;37.43;23007.97;4871921;29;20242;-64
2023/07/14 10:15:31;;;;;;;2.47;2.10;;;;;;;-141.84;37.38;22965.28;4878048;29;20738;-64
2023/07/14 10:18:05;;;;;;;2.20;2.00;;;;;;;-141.84;37.23;22983.56;4883471;29;20225;-64
2023/07/14 10:20:35;;;;;;;2.58;1.98;;;;;;;-141.84;37.38;22928.66;4864923;29;20230;-64
2023/07/14 10:23:05;;;;;;;3.55;2.08;;;;;;;-141.84;38.18;22904.25;4878870;29;20239;-63
2023/07/14 10:25:38;;;;;;;2.35;2.10;;;;;;;-141.84;38.03;22983.56;4890575;29;20682;-63
2023/07/14 10:28:13;;;;;;;2.38;2.05;;;;;;;-141.84;36.90;23054.75;4890995;29;20310;-63
2023/07/14 10:30:56;;;;;;;2.38;2.00;;;;;;;-141.84;37.93;22999.84;4883528;29;20673;-65
2023/07/14 10:33:32;;;;;;;2.40;2.15;;;;;;;-141.84;37.47;22949.00;4890131;29;20597;-64
2023/07/14 10:36:11;;;;;;;2.72;1.90;;;;;;;-141.84;37.53;22924.59;4890625;29;20233;-64
2023/07/14 10:38:45;;;;;;;2.20;2.00;;;;;;;-141.84;36.88;22928.66;4883497;29;20249;-63
2023/07/14 10:41:15;;;;;;;2.92;1.90;;;;;;;-141.84;37.01;22926.63;4890379;29;20229;-63
2023/07/14 10:43:51;;;;;;;2.72;1.90;;;;;;;-141.84;36.42;23030.34;4904629;29;20233;-63
2023/07/14 10:46:29;;;;;;;2.92;1.95;;;;;;;-141.84;35.93;23168.69;4898216;29;20230;-64
2023/07/14 10:49:08;;;;;;;2.47;1.90;;;;;;;-141.84;34.73;23345.66;4889713;29;20242;-64
2023/07/14 10:51:42;;;;;;;2.42;2.20;;;;;;;-141.84;34.33;23435.16;4889009;29;20609;-64
2023/07/14 10:54:16;;;;;;;2.38;2.08;;;;;;;-141.84;34.17;23502.28;4890374;29;20266;-62
2023/07/14 10:56:48;;;;;;;2.65;2.05;;;;;;;-141.84;34.22;23504.31;4883548;29;20458;-64
2023/07/14 10:59:23;;;;;;;3.35;2.10;;;;;;;-141.84;34.10;23604.00;4890732;29;20290;-65
2023/07/14 11:02:03;;;;;;;4.18;2.00;;;;;;;-141.84;33.67;23699.63;4904580;28;20229;-64
2023/07/14 11:04:37;;;;;;;3.85;2.00;;;;;;;-141.84;34.03;23691.47;4901075;28;20261;-65
2023/07/14 11:07:10;;;;;;;3.45;2.08;;;;;;;-141.84;33.86;23736.22;4900359;29;20345;-64
2023/07/14 11:09:39;;;;;;;2.20;2.00;;;;;;;-141.84;33.13;23730.13;4897066;29;20329;-64
2023/07/14 11:12:18;;;;;;;3.67;2.05;;;;;;;-141.84;32.94;23642.66;4907548;28;20688;-64
2023/07/14 11:14:53;;;;;;;4.50;2.25;;;;;;;-141.84;32.64;23634.50;4882438;29;20333;-62
2023/07/14 11:17:28;;;;;;;4.15;2.30;;;;;;;-141.84;33.19;23585.69;4889305;29;20270;-62
2023/07/14 11:20:17;;;;;;;2.97;2.10;;;;;;;-141.84;33.80;23506.34;4889596;29;20318;-63
2023/07/14 11:23:06;;;;;;;3.17;2.05;;;;;;;-141.84;33.67;23528.72;4881581;29;20818;-63
2023/07/14 11:25:45;;;;;;;2.88;1.92;;;;;;;-141.84;34.13;23433.13;4890404;29;20302;-63
2023/07/14 11:28:29;;;;;;;3.33;2.50;;;;;;;-141.84;34.43;23363.94;4889272;29;20323;-66
2023/07/14 11:31:02;;;;;;;4.32;2.20;;;;;;;-141.84;34.41;23290.72;4889419;29;20274;-64
2023/07/14 11:33:39;;;;;;;2.17;1.98;;;;;;;-141.84;35.17;23172.75;4889993;29;20239;-64
2023/07/14 11:36:16;;;;;;;2.20;1.95;;;;;;;-141.84;34.54;23109.69;4889458;29;20218;-63
2023/07/14 11:38:54;;;;;;;2.83;1.67;;;;;;;-141.84;34.44;23160.53;4882517;29;20215;-60